Time;durP1;ratioP1;P1;durP2;ratioP2;P2;SDS_P1;SDS_P2;PMS_P1;PMS_P2;Temp;Humidity;BMP_temperature;BMP_pressure;BME280_temperature;BME280_humidity;BME280_pressure;Samples;Min_cycle;Max_cycle;Signal;HPM_P1;HPM_P2
2023/12/06 00:02:02;;;;;;;27.85;21.67;;;;;;;2.16;100.00;100917.69;4839888;29;20061;-64
2023/12/06 00:04:51;;;;;;;26.80;20.73;;;;;;;2.17;100.00;100920.16;4837920;29;20050;-66
2023/12/06 00:07:39;;;;;;;25.45;20.10;;;;;;;2.18;100.00;100923.69;4836899;29;20067;-64
2023/12/06 00:10:27;;;;;;;27.65;21.48;;;;;;;2.19;100.00;100922.63;4840563;29;20455;-65
2023/12/06 00:13:15;;;;;;;28.50;21.42;;;;;;;2.22;100.00;100927.59;4860222;29;20053;-64
2023/12/06 00:16:03;;;;;;;26.40;20.02;;;;;;;2.22;100.00;100925.75;4834359;29;20061;-64
2023/12/06 00:18:53;;;;;;;27.45;21.55;;;;;;;2.21;100.00;100931.31;4840627;29;20054;-58
2023/12/06 00:21:41;;;;;;;26.55;20.77;;;;;;;2.21;100.00;100936.69;4834350;29;20106;-62
2023/12/06 00:24:29;;;;;;;27.67;21.35;;;;;;;2.21;100.00;100934.81;4803929;29;20057;-66
2023/12/06 00:27:17;;;;;;;25.90;21.20;;;;;;;2.22;100.00;100947.25;4844149;29;20046;-65
2023/12/06 00:30:06;;;;;;;26.20;20.95;;;;;;;2.22;100.00;100941.06;4843033;29;20049;-65
2023/12/06 00:32:54;;;;;;;27.08;21.70;;;;;;;2.22;100.00;100943.75;4803779;29;20079;-69
2023/12/06 00:35:42;;;;;;;28.77;21.77;;;;;;;2.23;100.00;100934.63;4822842;29;20054;-66
2023/12/06 00:38:31;;;;;;;25.85;20.52;;;;;;;2.24;100.00;100947.03;4826108;29;20114;-66
2023/12/06 00:41:20;;;;;;;28.38;21.17;;;;;;;2.22;100.00;100949.13;4813739;29;20496;-67
2023/12/06 00:44:08;;;;;;;26.75;21.23;;;;;;;2.22;100.00;100955.31;4829964;29;20101;-66
2023/12/06 00:46:56;;;;;;;25.60;20.63;;;;;;;2.23;100.00;100956.13;4822237;29;20051;-67
2023/12/06 00:49:44;;;;;;;28.17;21.95;;;;;;;2.24;100.00;100965.88;4825127;29;20511;-65
2023/12/06 00:52:32;;;;;;;28.60;21.80;;;;;;;2.24;100.00;100963.19;4827367;29;20050;-64
2023/12/06 00:55:20;;;;;;;28.08;21.90;;;;;;;2.26;100.00;100966.44;4842842;29;20426;-65
2023/12/06 00:58:08;;;;;;;29.00;22.50;;;;;;;2.27;100.00;100973.50;4826960;29;20043;-66
2023/12/06 01:00:56;;;;;;;30.45;23.38;;;;;;;2.26;100.00;100979.91;4826057;29;20428;-67
2023/12/06 01:03:44;;;;;;;32.45;23.58;;;;;;;2.25;100.00;100975.56;4824312;29;20636;-66
2023/12/06 01:06:32;;;;;;;31.42;23.70;;;;;;;2.27;100.00;100974.31;4824719;29;20110;-65
2023/12/06 01:09:20;;;;;;;30.70;23.92;;;;;;;2.27;100.00;100985.06;4841770;29;20042;-66
2023/12/06 01:12:09;;;;;;;32.08;24.52;;;;;;;2.27;100.00;100993.13;4841318;29;20106;-67
2023/12/06 01:14:57;;;;;;;31.13;23.67;;;;;;;2.29;100.00;100984.88;4843068;29;20182;-68
2023/12/06 01:17:46;;;;;;;30.52;23.20;;;;;;;2.30;100.00;100983.81;4840865;29;20423;-68
2023/12/06 01:20:38;;;;;;;30.02;22.92;;;;;;;2.30;100.00;100989.22;4825615;29;20061;-68
2023/12/06 01:23:26;;;;;;;28.88;22.95;;;;;;;2.29;100.00;100999.13;4825937;29;20145;-69
2023/12/06 01:26:14;;;;;;;29.75;23.55;;;;;;;2.30;100.00;100994.59;4823430;29;20099;-67
2023/12/06 01:29:04;;;;;;;31.70;25.23;;;;;;;2.31;100.00;100997.06;4825429;29;20054;-67
2023/12/06 01:31:52;;;;;;;31.23;23.95;;;;;;;2.33;100.00;101010.28;4823161;29;20203;-67
2023/12/06 01:34:40;;;;;;;30.73;22.52;;;;;;;2.33;100.00;101005.75;4823744;29;20138;-69
2023/12/06 01:37:28;;;;;;;30.52;23.23;;;;;;;2.36;100.00;101020.66;4823914;29;20049;-68
2023/12/06 01:40:16;;;;;;;30.70;23.63;;;;;;;2.36;100.00;101015.28;4825132;29;20047;-67
2023/12/06 01:43:04;;;;;;;28.73;23.98;;;;;;;2.35;100.00;101022.47;4828217;29;20054;-67
2023/12/06 01:45:52;;;;;;;29.48;22.88;;;;;;;2.34;100.00;101018.16;4825032;29;20074;-67
2023/12/06 01:48:43;;;;;;;30.85;23.42;;;;;;;2.33;100.00;101021.91;4824700;29;20046;-64
2023/12/06 01:51:32;;;;;;;28.38;21.75;;;;;;;2.33;100.00;101027.28;4824621;29;20134;-66
2023/12/06 01:54:20;;;;;;;28.38;22.35;;;;;;;2.35;100.00;101029.72;4837320;29;20302;-67
2023/12/06 01:57:07;;;;;;;28.80;21.60;;;;;;;2.35;100.00;101040.50;4840253;29;20412;-67
2023/12/06 01:59:56;;;;;;;30.05;23.75;;;;;;;2.35;100.00;101040.50;4816508;29;20510;-66
2023/12/06 02:02:45;;;;;;;28.73;22.38;;;;;;;2.36;100.00;101042.16;4811078;29;20061;-66
2023/12/06 02:05:33;;;;;;;27.15;20.40;;;;;;;2.36;100.00;101034.09;4836800;29;20543;-67
2023/12/06 02:08:21;;;;;;;28.38;21.08;;;;;;;2.37;100.00;101038.41;4836814;29;20059;-66
2023/12/06 02:11:09;;;;;;;26.50;20.98;;;;;;;2.35;100.00;101037.78;4824859;29;20054;-67
2023/12/06 02:13:57;;;;;;;26.55;20.75;;;;;;;2.35;100.00;101041.31;4829306;29;20186;-68
2023/12/06 02:16:45;;;;;;;26.17;20.50;;;;;;;2.36;100.00;101047.53;4840920;29;20177;-69
2023/12/06 02:19:33;;;;;;;26.67;20.23;;;;;;;2.36;100.00;101047.53;4824573;29;20062;-67
2023/12/06 02:22:22;;;;;;;27.52;20.23;;;;;;;2.38;100.00;101052.69;4822717;29;20099;-68
2023/12/06 02:25:16;;;;;;;26.10;20.02;;;;;;;2.39;100.00;101051.66;4840633;29;20360;-67
2023/12/06 02:28:04;;;;;;;26.38;19.75;;;;;;;2.38;100.00;101045.44;4840648;29;20452;-65
2023/12/06 02:30:52;;;;;;;26.83;19.80;;;;;;;2.37;100.00;101049.19;4824260;29;20116;-66
2023/12/06 02:33:40;;;;;;;26.50;19.88;;;;;;;2.38;100.00;101044.63;4830297;29;20603;-67
2023/12/06 02:36:29;;;;;;;26.13;19.02;;;;;;;2.38;100.00;101053.50;4839531;29;20038;-66
2023/12/06 02:39:17;;;;;;;24.50;18.27;;;;;;;2.39;100.00;101049.81;4827494;29;20478;-65
2023/12/06 02:42:06;;;;;;;24.23;18.50;;;;;;;2.38;100.00;101050.81;4840686;29;20054;-67
2023/12/06 02:44:54;;;;;;;23.05;17.90;;;;;;;2.40;100.00;101053.31;4822680;29;20050;-68
2023/12/06 02:47:42;;;;;;;26.33;18.73;;;;;;;2.42;100.00;101049.38;4832495;29;20072;-67
2023/12/06 02:50:30;;;;;;;24.05;17.75;;;;;;;2.43;100.00;101051.03;4823337;29;20203;-65
2023/12/06 02:53:18;;;;;;;22.25;16.85;;;;;;;2.44;100.00;101051.88;4828234;29;20519;-66
2023/12/06 02:56:06;;;;;;;22.58;17.48;;;;;;;2.44;100.00;101052.69;4823515;29;20046;-68
2023/12/06 02:58:54;;;;;;;23.42;17.55;;;;;;;2.45;100.00;101057.00;4822919;29;20054;-65
2023/12/06 03:01:46;;;;;;;22.25;17.25;;;;;;;2.45;100.00;101058.88;4822897;29;20187;-69
2023/12/06 03:04:35;;;;;;;23.33;17.55;;;;;;;2.45;100.00;101057.00;4822726;29;20054;-66
2023/12/06 03:07:23;;;;;;;25.77;17.50;;;;;;;2.44;100.00;101066.13;4822695;29;20531;-66
2023/12/06 03:10:11;;;;;;;25.38;15.80;;;;;;;2.45;100.00;101059.69;4810530;29;20055;-67
2023/12/06 03:12:59;;;;;;;23.30;16.50;;;;;;;2.44;100.00;101052.69;4837439;29;20069;-65
2023/12/06 03:15:47;;;;;;;24.10;15.60;;;;;;;2.44;100.00;101060.75;4838717;29;20057;-66
2023/12/06 03:18:35;;;;;;;22.10;16.27;;;;;;;2.44;100.00;101058.06;4822196;29;20065;-66
2023/12/06 03:21:24;;;;;;;21.67;15.98;;;;;;;2.46;100.00;101047.09;4815785;29;20038;-66
2023/12/06 03:24:12;;;;;;;22.02;15.88;;;;;;;2.47;100.00;101059.50;4824071;29;20154;-65
2023/12/06 03:27:00;;;;;;;21.42;15.52;;;;;;;2.48;100.00;101067.38;4823866;29;20570;-65
2023/12/06 03:29:48;;;;;;;19.23;14.30;;;;;;;2.47;100.00;101064.88;4828050;29;20077;-64
2023/12/06 03:32:36;;;;;;;18.75;13.77;;;;;;;2.48;100.00;101069.25;4833817;29;20050;-65
2023/12/06 03:35:24;;;;;;;22.13;14.35;;;;;;;2.49;100.00;101070.88;4823818;29;20129;-65
2023/12/06 03:38:12;;;;;;;23.70;15.10;;;;;;;2.49;100.00;101068.19;4823537;29;20051;-67
2023/12/06 03:41:01;;;;;;;18.50;13.85;;;;;;;2.52;100.00;101081.22;4823866;29;20046;-65
2023/12/06 03:43:49;;;;;;;19.75;14.23;;;;;;;2.51;100.00;101077.72;4833510;29;20061;-65
2023/12/06 03:46:50;;;;;;;20.10;13.95;;;;;;;2.54;100.00;101087.22;4840820;29;20153;-65
2023/12/06 03:49:38;;;;;;;17.77;13.32;;;;;;;2.54;100.00;101090.72;4831542;29;20046;-67
2023/12/06 03:52:26;;;;;;;17.52;13.50;;;;;;;2.55;100.00;101084.34;4823583;29;20054;-67
2023/12/06 03:55:14;;;;;;;20.67;12.85;;;;;;;2.56;100.00;101090.53;4824565;29;20054;-65
2023/12/06 03:58:02;;;;;;;18.38;13.07;;;;;;;2.56;100.00;101091.34;4822266;29;20323;-64
2023/12/06 04:00:50;;;;;;;18.10;12.80;;;;;;;2.58;100.00;101087.66;4823901;29;20062;-65
2023/12/06 04:03:40;;;;;;;16.25;12.18;;;;;;;2.58;100.00;101093.84;4824408;29;20058;-66
2023/12/06 04:06:28;;;;;;;17.48;12.88;;;;;;;2.60;100.00;101088.25;4822347;29;20058;-66
2023/12/06 04:09:16;;;;;;;16.60;12.40;;;;;;;2.60;100.00;101090.94;4822428;29;20190;-65
2023/12/06 04:12:05;;;;;;;20.08;11.80;;;;;;;2.61;100.00;101097.97;4815358;29;20055;-65
2023/12/06 04:14:54;;;;;;;16.27;11.48;;;;;;;2.62;100.00;101105.84;4823388;29;20047;-65
2023/12/06 04:17:42;;;;;;;17.40;11.93;;;;;;;2.64;100.00;101108.31;4823537;29;20141;-65
2023/12/06 04:20:30;;;;;;;17.35;11.60;;;;;;;2.66;100.00;101106.25;4821922;29;20419;-65
2023/12/06 04:23:18;;;;;;;18.05;11.55;;;;;;;2.66;100.00;101112.44;4824141;29;20602;-66
2023/12/06 04:26:06;;;;;;;16.05;11.27;;;;;;;2.67;100.00;101107.91;4809249;29;20203;-65
2023/12/06 04:28:54;;;;;;;19.10;11.63;;;;;;;2.68;100.00;101104.19;4816601;29;20551;-59
2023/12/06 04:31:42;;;;;;;15.60;10.95;;;;;;;2.68;100.00;101109.56;4840770;29;20061;-60
2023/12/06 04:34:32;;;;;;;15.70;10.95;;;;;;;2.68;100.00;101115.75;4829817;29;20125;-63
2023/12/06 04:37:21;;;;;;;16.65;11.38;;;;;;;2.71;100.00;101114.53;4834640;29;20605;-66
2023/12/06 04:40:10;;;;;;;15.02;10.88;;;;;;;2.71;100.00;101119.91;4841592;29;20050;-64
2023/12/06 04:42:57;;;;;;;15.35;10.68;;;;;;;2.72;100.00;101124.25;4847097;29;20046;-63
2023/12/06 04:45:45;;;;;;;16.10;10.73;;;;;;;2.72;100.00;101127.78;4828508;29;20059;-64
2023/12/06 04:48:34;;;;;;;15.95;10.00;;;;;;;2.72;100.00;101119.72;4826901;29;20499;-65
2023/12/06 04:51:22;;;;;;;14.70;10.52;;;;;;;2.74;100.00;101120.31;4830721;29;20081;-65
2023/12/06 04:54:10;;;;;;;16.27;11.02;;;;;;;2.74;100.00;101120.31;4835071;29;20478;-65
2023/12/06 04:56:59;;;;;;;15.98;10.80;;;;;;;2.74;100.00;101123.03;4824572;29;20078;-66
2023/12/06 04:59:46;;;;;;;17.02;9.77;;;;;;;2.76;100.00;101128.16;4824638;29;20051;-65
2023/12/06 05:02:35;;;;;;;16.50;10.55;;;;;;;2.77;100.00;101135.22;4834254;29;20050;-67
2023/12/06 05:05:23;;;;;;;16.92;9.88;;;;;;;2.77;100.00;101135.22;4842764;29;20054;-66
2023/12/06 05:08:11;;;;;;;14.40;9.93;;;;;;;2.77;100.00;101132.53;4843003;29;20085;-65
2023/12/06 05:10:59;;;;;;;16.98;10.70;;;;;;;2.78;100.00;101142.25;4843580;29;20057;-66
2023/12/06 05:13:47;;;;;;;17.50;11.07;;;;;;;2.78;100.00;101134.19;4822511;29;20503;-66
2023/12/06 05:16:35;;;;;;;15.10;10.32;;;;;;;2.77;100.00;101140.59;4831224;29;20062;-65
2023/12/06 05:19:26;;;;;;;16.25;10.18;;;;;;;2.76;100.00;101138.94;4831406;29;20129;-65
2023/12/06 05:22:14;;;;;;;14.77;10.07;;;;;;;2.77;100.00;101137.91;4845325;29;20057;-65
2023/12/06 05:25:03;;;;;;;16.38;10.23;;;;;;;2.77;100.00;101149.50;4840715;29;20054;-65
2023/12/06 05:27:52;;;;;;;15.90;10.00;;;;;;;2.78;100.00;101147.63;4825079;29;20183;-66
2023/12/06 05:30:41;;;;;;;14.13;9.88;;;;;;;2.77;100.00;101146.00;4824522;29;20061;-65
2023/12/06 05:33:29;;;;;;;15.45;9.90;;;;;;;2.79;100.00;101149.31;4826186;29;20137;-66
2023/12/06 05:36:17;;;;;;;18.30;10.77;;;;;;;2.80;100.00;101144.75;4827115;29;20046;-65
2023/12/06 05:39:10;;;;;;;14.48;10.15;;;;;;;2.82;100.00;101148.88;4815903;29;20054;-65
2023/12/06 05:41:58;;;;;;;17.23;10.15;;;;;;;2.82;100.00;101154.25;4824391;29;20053;-66
2023/12/06 05:44:46;;;;;;;15.27;10.00;;;;;;;2.82;100.00;101154.25;4826130;29;20130;-66
2023/12/06 05:47:34;;;;;;;16.80;10.27;;;;;;;2.84;100.00;101159.41;4489432;29;10000131;-67
2023/12/06 05:50:22;;;;;;;14.20;10.07;;;;;;;2.86;100.00;101162.72;4823639;29;20427;-67
2023/12/06 05:53:10;;;;;;;16.60;9.65;;;;;;;2.87;100.00;101164.41;4828491;29;20096;-67
2023/12/06 05:55:58;;;;;;;15.13;10.27;;;;;;;2.87;100.00;101162.53;4839683;29;20052;-67
2023/12/06 05:58:46;;;;;;;15.30;9.98;;;;;;;2.89;100.00;101160.47;4820021;29;20060;-67
2023/12/06 06:01:36;;;;;;;15.88;9.73;;;;;;;2.90;100.00;101159.41;4821383;29;20047;-67
2023/12/06 06:04:24;;;;;;;14.77;9.27;;;;;;;2.91;100.00;101166.47;4821429;29;20069;-68
2023/12/06 06:07:12;;;;;;;16.33;10.43;;;;;;;2.92;100.00;101167.28;4820273;29;20062;-66
2023/12/06 06:10:00;;;;;;;14.98;9.65;;;;;;;2.93;100.00;101167.06;4838629;29;20058;-67
2023/12/06 06:12:52;;;;;;;13.38;9.60;;;;;;;2.93;100.00;101169.75;4823609;29;20226;-67
2023/12/06 06:15:40;;;;;;;14.13;10.00;;;;;;;2.95;100.00;101172.25;4838312;29;20685;-66
2023/12/06 06:18:28;;;;;;;13.95;9.65;;;;;;;2.96;100.00;101176.59;4828160;29;20058;-65
2023/12/06 06:21:16;;;;;;;14.07;9.18;;;;;;;2.97;100.00;101172.88;4821035;29;20053;-67
2023/12/06 06:24:05;;;;;;;18.55;12.00;;;;;;;2.98;100.00;101183.44;4819757;29;20133;-66
2023/12/06 06:26:52;;;;;;;14.95;9.32;;;;;;;3.00;100.00;101188.59;4819362;29;20078;-66
2023/12/06 06:29:40;;;;;;;14.35;9.25;;;;;;;3.04;100.00;101189.84;4831858;29;20118;-65
2023/12/06 06:32:28;;;;;;;14.00;9.13;;;;;;;3.07;100.00;101185.91;4835587;29;20047;-67
2023/12/06 06:35:17;;;;;;;14.90;9.45;;;;;;;3.07;100.00;101188.59;4824133;29;20042;-67
2023/12/06 06:38:05;;;;;;;18.90;10.85;;;;;;;3.07;100.00;101194.78;4836929;29;20050;-67
2023/12/06 06:40:53;;;;;;;17.45;9.75;;;;;;;3.06;100.00;101198.53;4836895;29;20096;-65
2023/12/06 06:43:41;;;;;;;14.45;9.50;;;;;;;3.07;100.00;101204.75;4836958;29;20066;-68
2023/12/06 06:46:30;;;;;;;15.82;10.25;;;;;;;3.09;100.00;101210.75;4837462;29;20522;-67
2023/12/06 06:49:18;;;;;;;14.70;9.73;;;;;;;3.08;100.00;101215.31;4822794;29;20395;-66
2023/12/06 06:52:06;;;;;;;14.85;9.55;;;;;;;3.10;100.00;101215.94;4819967;29;20054;-67
2023/12/06 06:54:54;;;;;;;15.70;9.68;;;;;;;3.10;100.00;101215.09;4819036;29;20480;-67
2023/12/06 06:57:42;;;;;;;15.23;10.40;;;;;;;3.11;100.00;101216.75;4820118;29;20102;-67
2023/12/06 07:00:30;;;;;;;14.60;9.80;;;;;;;3.12;100.00;101226.47;4826803;29;20056;-66
2023/12/06 07:03:21;;;;;;;17.00;10.30;;;;;;;3.12;100.00;101235.38;4838283;29;20400;-66
2023/12/06 07:06:09;;;;;;;17.48;10.30;;;;;;;3.11;100.00;101225.66;4837066;29;20054;-66
2023/12/06 07:08:57;;;;;;;16.25;9.75;;;;;;;3.12;100.00;101234.56;4819840;29;20625;-68
2023/12/06 07:11:45;;;;;;;16.98;10.32;;;;;;;3.12;100.00;101240.75;4820228;29;20072;-65
2023/12/06 07:14:33;;;;;;;15.98;10.32;;;;;;;3.13;100.00;101234.34;4832890;29;20098;-67
2023/12/06 07:17:21;;;;;;;14.95;9.40;;;;;;;3.14;100.00;101233.31;4822053;29;20122;-67
2023/12/06 07:20:11;;;;;;;17.67;10.77;;;;;;;3.15;100.00;101236.81;4825472;29;20141;-66
2023/12/06 07:23:00;;;;;;;18.95;10.55;;;;;;;3.16;100.00;101235.81;4812124;29;20110;-66
2023/12/06 07:25:48;;;;;;;15.10;9.50;;;;;;;3.16;100.00;101239.31;4836733;29;20065;-70
2023/12/06 07:28:36;;;;;;;15.38;9.90;;;;;;;3.17;100.00;101243.66;4820735;29;20282;-66
2023/12/06 07:31:25;;;;;;;14.35;9.82;;;;;;;3.18;100.00;101249.88;4818829;29;20137;-67
2023/12/06 07:34:13;;;;;;;17.42;10.38;;;;;;;3.19;100.00;101246.16;4817977;29;20054;-69
2023/12/06 07:37:09;;;;;;;15.27;9.52;;;;;;;3.20;100.00;101251.34;4825277;29;20071;-66
2023/12/06 07:39:57;;;;;;;16.65;10.48;;;;;;;3.21;100.00;101249.47;4837344;29;20053;-67
2023/12/06 07:42:45;;;;;;;17.67;10.23;;;;;;;3.19;100.00;101256.91;4832492;29;20070;-65
2023/12/06 07:45:33;;;;;;;17.48;10.88;;;;;;;3.19;100.00;101267.69;4822837;29;20054;-66
2023/12/06 07:48:21;;;;;;;25.38;11.25;;;;;;;3.22;100.00;101263.75;4831585;29;20214;-65
2023/12/06 07:51:09;;;;;;;16.88;10.80;;;;;;;3.21;100.00;101276.38;4828356;29;20046;-65
2023/12/06 07:53:58;;;;;;;25.35;10.93;;;;;;;3.26;100.00;101281.16;4827006;29;20141;-66
2023/12/06 07:56:46;;;;;;;18.90;11.18;;;;;;;3.33;100.00;101274.72;4822739;29;20055;-66
2023/12/06 07:59:35;;;;;;;16.30;10.15;;;;;;;3.33;100.00;101279.28;4829795;29;20468;-65
2023/12/06 08:02:23;;;;;;;17.92;10.13;;;;;;;3.31;100.00;101273.28;4844878;29;20399;-66
2023/12/06 08:05:11;;;;;;;19.92;10.48;;;;;;;3.30;100.00;101279.72;4814260;29;20218;-65
2023/12/06 08:07:59;;;;;;;16.42;10.18;;;;;;;3.29;100.00;101280.72;4812651;29;20050;-67
2023/12/06 08:10:47;;;;;;;18.13;10.35;;;;;;;3.30;100.00;101291.31;4813997;29;20046;-64
2023/12/06 08:13:35;;;;;;;17.25;10.07;;;;;;;3.30;100.00;101283.22;4829550;29;20038;-65
2023/12/06 08:16:23;;;;;;;18.48;10.35;;;;;;;3.30;100.00;101291.31;4843146;29;20050;-66
2023/12/06 08:19:11;;;;;;;19.20;10.73;;;;;;;3.30;100.00;101287.78;4844490;29;20616;-65
2023/12/06 08:22:00;;;;;;;20.92;9.70;;;;;;;3.31;100.00;101292.94;4842902;29;20053;-65
2023/12/06 08:24:48;;;;;;;16.60;10.43;;;;;;;3.31;100.00;101286.75;4834408;29;20046;-66
2023/12/06 08:27:36;;;;;;;15.38;10.35;;;;;;;3.33;100.00;101290.06;4834622;29;20042;-67
2023/12/06 08:30:24;;;;;;;16.67;10.32;;;;;;;3.34;100.00;101297.09;4843891;29;20200;-67
2023/12/06 08:33:13;;;;;;;18.75;10.43;;;;;;;3.35;100.00;101298.75;4843180;29;20136;-67
2023/12/06 08:36:02;;;;;;;15.95;10.32;;;;;;;3.36;100.00;101301.22;4829297;29;20061;-70
2023/12/06 08:38:50;;;;;;;14.93;10.07;;;;;;;3.37;100.00;101300.22;4813078;29;20087;-68
2023/12/06 08:41:38;;;;;;;15.95;10.20;;;;;;;3.38;100.00;101299.16;4812865;29;20419;-66
2023/12/06 08:44:28;;;;;;;18.95;9.95;;;;;;;3.39;100.00;101310.75;4826892;29;20427;-66
2023/12/06 08:47:17;;;;;;;18.85;10.18;;;;;;;3.42;100.00;101313.88;4813931;29;20049;-65
2023/12/06 08:50:07;;;;;;;15.23;10.23;;;;;;;3.43;100.00;101317.38;4827410;29;20121;-65
2023/12/06 08:52:55;;;;;;;16.25;10.32;;;;;;;3.45;100.00;101320.72;4828059;29;20054;-65
2023/12/06 08:55:43;;;;;;;17.40;10.07;;;;;;;3.48;100.00;101324.84;4840369;29;20053;-62
2023/12/06 08:58:31;;;;;;;18.83;9.80;;;;;;;3.48;100.00;101324.84;4824716;29;20086;-65
2023/12/06 09:01:19;;;;;;;19.10;9.95;;;;;;;3.51;100.00;101335.19;4842505;29;20062;-64
2023/12/06 09:04:09;;;;;;;18.00;9.80;;;;;;;3.52;100.00;101332.31;4839434;29;20065;-62
2023/12/06 09:06:57;;;;;;;18.63;9.68;;;;;;;3.56;100.00;101327.31;4844138;29;20050;-61
2023/12/06 09:09:46;;;;;;;16.75;10.55;;;;;;;3.59;100.00;101332.31;4860180;29;20551;-64
2023/12/06 09:12:35;;;;;;;21.30;10.85;;;;;;;3.59;100.00;101340.38;4825712;29;20139;-67
2023/12/06 09:15:23;;;;;;;18.67;10.50;;;;;;;3.59;100.00;101346.59;4813126;29;20046;-66
2023/12/06 09:18:11;;;;;;;18.92;10.07;;;;;;;3.60;100.00;101344.72;4826302;29;20046;-67
2023/12/06 09:20:59;;;;;;;17.25;11.15;;;;;;;3.60;100.00;101350.13;4825420;29;20065;-69
2023/12/06 09:23:48;;;;;;;17.02;11.30;;;;;;;3.58;100.00;101346.81;4821275;29;20050;-65
2023/12/06 09:26:36;;;;;;;18.10;10.73;;;;;;;3.57;100.00;101350.53;4841556;29;20049;-65
2023/12/06 09:29:25;;;;;;;18.35;10.10;;;;;;;3.58;100.00;101346.81;4837595;29;20046;-65
2023/12/06 09:32:13;;;;;;;17.55;10.70;;;;;;;3.61;100.00;101351.78;4811001;29;20058;-66
2023/12/06 09:35:01;;;;;;;19.90;10.40;;;;;;;3.62;100.00;101358.81;4825579;29;20141;-66
2023/12/06 09:37:49;;;;;;;19.33;10.32;;;;;;;3.63;100.00;101357.78;4825153;29;20364;-67
2023/12/06 09:40:37;;;;;;;17.75;9.95;;;;;;;3.64;100.00;101367.53;4811865;29;20054;-66
2023/12/06 09:43:25;;;;;;;18.40;10.63;;;;;;;3.63;100.00;101366.72;4825854;29;20428;-66
2023/12/06 09:46:16;;;;;;;17.75;10.57;;;;;;;3.63;100.00;101366.72;4811967;29;20054;-66
2023/12/06 09:49:04;;;;;;;18.67;10.13;;;;;;;3.62;100.00;101381.22;4841618;29;20053;-66
2023/12/06 09:51:53;;;;;;;16.77;9.70;;;;;;;3.60;100.00;101377.88;4821263;29;20050;-67
2023/12/06 09:54:43;;;;;;;19.85;9.55;;;;;;;3.61;100.00;101381.44;4810836;29;20093;-66
2023/12/06 09:57:32;;;;;;;19.13;9.32;;;;;;;3.62;100.00;101385.78;4825025;29;20050;-66
2023/12/06 10:00:21;;;;;;;18.08;9.65;;;;;;;3.63;100.00;101387.41;4824756;29;20055;-67
2023/12/06 10:03:12;;;;;;;15.13;9.52;;;;;;;3.65;100.00;101385.34;4825045;29;20049;-66
2023/12/06 10:06:03;;;;;;;15.82;8.95;;;;;;;3.66;100.00;101381.63;4830087;29;20046;-67
2023/12/06 10:08:55;;;;;;;21.27;9.52;;;;;;;3.68;100.00;101390.34;4841655;29;20050;-66
2023/12/06 10:11:43;;;;;;;16.08;9.77;;;;;;;3.70;100.00;101399.03;4842559;29;20054;-66
2023/12/06 10:14:31;;;;;;;19.00;9.63;;;;;;;3.72;100.00;101390.75;4842356;29;20136;-66
2023/12/06 10:17:23;;;;;;;19.38;10.02;;;;;;;3.73;100.00;101393.25;4832765;29;20419;-67
2023/12/06 10:20:14;;;;;;;17.60;9.48;;;;;;;3.75;100.00;101383.09;4834642;29;20069;-66
2023/12/06 10:23:02;;;;;;;16.73;9.40;;;;;;;3.78;100.00;101390.75;4841449;29;20046;-66
2023/12/06 10:25:50;;;;;;;19.17;9.85;;;;;;;3.80;100.00;101380.59;4827382;29;20050;-66
2023/12/06 10:28:38;;;;;;;21.23;9.70;;;;;;;3.83;100.00;101382.03;4841179;29;20079;-65
2023/12/06 10:31:27;;;;;;;16.80;9.48;;;;;;;3.87;100.00;101377.03;4841553;29;20163;-67
2023/12/06 10:34:15;;;;;;;15.70;9.48;;;;;;;3.92;100.00;101374.53;4841419;29;20061;-66
2023/12/06 10:37:03;;;;;;;17.88;9.15;;;;;;;3.96;100.00;101386.56;4833862;29;20061;-66
2023/12/06 10:40:09;;;;;;;18.10;9.35;;;;;;;4.00;100.00;101388.63;4810600;29;20078;-67
2023/12/06 10:43:07;;;;;;;16.17;9.10;;;;;;;4.03;100.00;101387.38;4811907;29;20058;-67
2023/12/06 10:45:56;;;;;;;15.25;9.13;;;;;;;4.08;100.00;101386.75;4828547;29;20488;-67
2023/12/06 10:48:45;;;;;;;13.35;8.60;;;;;;;4.09;100.00;101383.84;4824396;29;20054;-66
2023/12/06 10:51:35;;;;;;;14.90;9.02;;;;;;;4.11;100.00;101387.13;4824677;29;20057;-65
2023/12/06 10:54:24;;;;;;;17.63;9.48;;;;;;;4.15;100.00;101392.97;4822742;29;20504;-65
2023/12/06 10:57:14;;;;;;;16.98;9.30;;;;;;;4.18;100.00;101390.66;4824441;29;20137;-66
2023/12/06 11:00:03;;;;;;;14.75;8.75;;;;;;;4.20;100.00;101388.56;4823513;29;20066;-66
2023/12/06 11:02:51;;;;;;;19.20;8.80;;;;;;;4.22;100.00;101381.09;4824517;29;20522;-66
2023/12/06 11:05:47;;;;;;;15.20;8.77;;;;;;;4.25;100.00;101380.69;4828057;29;20631;-66
2023/12/06 11:08:56;;;;;;;;;;;;;;;4.29;100.00;101385.66;4829973;29;20050;-65
2023/12/06 11:11:53;;;;;;;13.57;8.00;;;;;;;4.31;100.00;101380.88;4843972;29;19995;-66
2023/12/06 11:14:53;;;;;;;17.00;8.20;;;;;;;4.33;100.00;101381.47;4827870;29;20134;-65
2023/12/06 11:17:43;;;;;;;14.43;8.50;;;;;;;4.36;100.00;101387.28;4826102;29;20141;-65
2023/12/06 11:20:31;;;;;;;16.50;8.68;;;;;;;4.39;100.00;101391.44;4841295;29;20524;-66
2023/12/06 11:23:21;;;;;;;15.60;8.32;;;;;;;4.40;100.00;101390.38;4828498;29;20167;-66
2023/12/06 11:26:14;;;;;;;15.20;8.15;;;;;;;4.41;100.00;101392.06;4831411;29;20081;-65
2023/12/06 11:29:03;;;;;;;16.35;8.45;;;;;;;4.42;100.00;101385.59;4823412;29;20396;-65
2023/12/06 11:32:03;;;;;;;17.48;8.27;;;;;;;4.42;100.00;101388.31;4810634;29;20120;-65
2023/12/06 11:34:57;;;;;;;18.02;8.38;;;;;;;4.42;100.00;101388.31;4823837;29;20042;-65
2023/12/06 11:37:54;;;;;;;15.20;7.80;;;;;;;4.42;100.00;101394.53;4812708;29;20054;-65
2023/12/06 11:40:52;;;;;;;15.48;7.97;;;;;;;4.42;100.00;101388.31;4825644;29;20419;-66
2023/12/06 11:43:50;;;;;;;14.55;8.30;;;;;;;4.42;100.00;101391.00;4814329;29;20062;-66
2023/12/06 11:46:38;;;;;;;17.42;8.38;;;;;;;4.41;100.00;101389.34;4825617;29;20095;-64
2023/12/06 11:49:27;;;;;;;15.00;7.32;;;;;;;4.42;100.00;101388.31;4829150;29;20058;-68
2023/12/06 11:52:17;;;;;;;16.58;8.38;;;;;;;4.47;100.00;101393.88;4827200;29;20070;-65
2023/12/06 11:55:05;;;;;;;15.55;8.60;;;;;;;4.48;100.00;101400.94;4825509;29;20058;-67
2023/12/06 11:58:07;;;;;;;15.43;8.15;;;;;;;4.50;100.00;101398.88;4825413;29;20227;-66
2023/12/06 12:00:55;;;;;;;15.88;8.13;;;;;;;4.52;100.00;101402.16;4826602;29;20054;-66
2023/12/06 12:03:51;;;;;;;16.60;8.05;;;;;;;4.55;100.00;101396.34;4828465;29;20061;-66
2023/12/06 12:06:39;;;;;;;16.90;8.27;;;;;;;4.57;100.00;101394.28;4809123;29;20129;-66
2023/12/06 12:09:29;;;;;;;14.90;8.40;;;;;;;4.57;100.00;101388.88;4843504;29;20054;-68
2023/12/06 12:12:18;;;;;;;15.50;7.72;;;;;;;4.61;100.00;101403.59;4843600;29;20050;-66
2023/12/06 12:15:07;;;;;;;16.80;7.95;;;;;;;4.65;100.00;101396.72;4841276;29;20054;-65
2023/12/06 12:17:56;;;;;;;17.15;8.43;;;;;;;4.68;100.00;101400.88;4813265;29;20046;-65
2023/12/06 12:20:44;;;;;;;20.88;8.10;;;;;;;4.73;100.00;101403.75;4825552;29;20054;-66
2023/12/06 12:23:32;;;;;;;17.50;8.00;;;;;;;4.79;100.00;101399.38;4825574;29;20055;-65
2023/12/06 12:26:20;;;;;;;15.32;7.35;;;;;;;4.84;100.00;101394.16;4827119;29;20562;-66
2023/12/06 12:29:17;;;;;;;15.90;8.25;;;;;;;4.88;100.00;101398.06;4826097;29;20054;-66
2023/12/06 12:32:05;;;;;;;12.95;7.57;;;;;;;4.92;100.00;101396.59;4824641;29;20057;-67
2023/12/06 12:34:53;;;;;;;17.80;8.20;;;;;;;4.94;100.00;101394.50;4827427;29;20133;-67
2023/12/06 12:37:42;;;;;;;17.42;8.02;;;;;;;4.96;100.00;101395.13;4828062;29;20415;-66
2023/12/06 12:40:30;;;;;;;17.00;8.45;;;;;;;4.97;100.00;101399.47;4825082;29;20046;-67
2023/12/06 12:43:18;;;;;;;18.23;8.13;;;;;;;5.01;100.00;101395.28;4825494;29;20503;-66
2023/12/06 12:46:06;;;;;;;17.40;7.25;;;;;;;5.02;100.00;101390.72;4825614;29;20069;-66
2023/12/06 12:48:54;;;;;;;16.15;7.28;;;;;;;5.02;100.00;101399.63;4813808;29;20401;-66
2023/12/06 12:51:43;;;;;;;14.82;7.25;;;;;;;5.04;100.00;101397.56;4826218;29;20508;-66